sensor_id;sensor_type;location;lat;lon;timestamp;P1;durP1;ratioP1;P2;durP2;ratioP2
29546;SDS011;40782;47.264;11.330;2022-09-09T00:00:25;1.98;;;1.45;;
29546;SDS011;40782;47.264;11.330;2022-09-09T00:02:58;3.35;;;1.33;;
29546;SDS011;40782;47.264;11.330;2022-09-09T00:05:38;2.70;;;1.60;;
29546;SDS011;40782;47.264;11.330;2022-09-09T00:08:13;1.55;;;1.40;;
29546;SDS011;40782;47.264;11.330;2022-09-09T00:10:45;1.60;;;1.50;;
29546;SDS011;40782;47.264;11.330;2022-09-09T00:13:19;1.30;;;1.20;;
29546;SDS011;40782;47.264;11.330;2022-09-09T00:15:53;2.17;;;1.52;;
29546;SDS011;40782;47.264;11.330;2022-09-09T00:18:27;4.97;;;1.70;;
29546;SDS011;40782;47.264;11.330;2022-09-09T00:21:01;2.67;;;1.77;;
29546;SDS011;40782;47.264;11.330;2022-09-09T00:23:33;1.88;;;1.60;;
29546;SDS011;40782;47.264;11.330;2022-09-09T00:26:05;1.50;;;1.40;;
29546;SDS011;40782;47.264;11.330;2022-09-09T00:28:38;1.83;;;1.45;;
29546;SDS011;40782;47.264;11.330;2022-09-09T00:31:11;3.42;;;1.48;;
29546;SDS011;40782;47.264;11.330;2022-09-09T00:33:40;1.50;;;1.40;;
29546;SDS011;40782;47.264;11.330;2022-09-09T00:36:12;2.28;;;1.75;;
29546;SDS011;40782;47.264;11.330;2022-09-09T00:38:42;1.73;;;1.60;;
29546;SDS011;40782;47.264;11.330;2022-09-09T00:41:14;3.97;;;1.70;;
29546;SDS011;40782;47.264;11.330;2022-09-09T00:43:51;3.13;;;1.30;;
29546;SDS011;40782;47.264;11.330;2022-09-09T00:46:32;2.17;;;1.60;;
29546;SDS011;40782;47.264;11.330;2022-09-09T00:49:29;3.85;;;1.73;;
29546;SDS011;40782;47.264;11.330;2022-09-09T00:52:11;2.03;;;1.80;;
29546;SDS011;40782;47.264;11.330;2022-09-09T00:54:51;4.15;;;1.58;;
29546;SDS011;40782;47.264;11.330;2022-09-09T00:57:29;3.75;;;1.35;;
29546;SDS011;40782;47.264;11.330;2022-09-09T01:02:46;1.42;;;1.33;;
29546;SDS011;40782;47.264;11.330;2022-09-09T01:05:22;3.30;;;1.42;;
29546;SDS011;40782;47.264;11.330;2022-09-09T01:07:58;1.65;;;1.50;;
29546;SDS011;40782;47.264;11.330;2022-09-09T01:10:30;4.20;;;1.88;;
29546;SDS011;40782;47.264;11.330;2022-09-09T01:13:08;3.42;;;2.00;;
29546;SDS011;40782;47.264;11.330;2022-09-09T01:15:41;1.35;;;1.30;;
29546;SDS011;40782;47.264;11.330;2022-09-09T01:18:13;2.25;;;1.73;;
29546;SDS011;40782;47.264;11.330;2022-09-09T01:20:45;1.95;;;1.73;;
29546;SDS011;40782;47.264;11.330;2022-09-09T01:26:18;1.63;;;1.50;;
29546;SDS011;40782;47.264;11.330;2022-09-09T01:28:50;1.58;;;1.48;;
29546;SDS011;40782;47.264;11.330;2022-09-09T01:31:20;4.65;;;1.90;;
29546;SDS011;40782;47.264;11.330;2022-09-09T01:33:52;2.17;;;1.48;;
29546;SDS011;40782;47.264;11.330;2022-09-09T01:36:23;2.85;;;1.50;;
29546;SDS011;40782;47.264;11.330;2022-09-09T01:38:56;1.73;;;1.55;;
29546;SDS011;40782;47.264;11.330;2022-09-09T01:41:25;2.38;;;2.00;;
29546;SDS011;40782;47.264;11.330;2022-09-09T01:43:52;2.47;;;1.45;;
29546;SDS011;40782;47.264;11.330;2022-09-09T01:46:21;6.15;;;1.60;;
29546;SDS011;40782;47.264;11.330;2022-09-09T01:48:49;1.63;;;1.52;;
29546;SDS011;40782;47.264;11.330;2022-09-09T01:51:18;4.10;;;1.80;;
29546;SDS011;40782;47.264;11.330;2022-09-09T01:53:45;2.80;;;1.80;;
29546;SDS011;40782;47.264;11.330;2022-09-09T01:56:18;2.67;;;1.60;;
29546;SDS011;40782;47.264;11.330;2022-09-09T01:59:03;2.08;;;1.35;;
29546;SDS011;40782;47.264;11.330;2022-09-09T02:01:46;1.63;;;1.52;;
29546;SDS011;40782;47.264;11.330;2022-09-09T02:04:23;3.53;;;1.70;;
29546;SDS011;40782;47.264;11.330;2022-09-09T02:07:00;2.08;;;1.80;;
29546;SDS011;40782;47.264;11.330;2022-09-09T02:09:28;3.97;;;1.65;;
29546;SDS011;40782;47.264;11.330;2022-09-09T02:11:57;3.08;;;1.75;;
29546;SDS011;40782;47.264;11.330;2022-09-09T02:14:34;3.03;;;1.52;;
29546;SDS011;40782;47.264;11.330;2022-09-09T02:17:07;1.58;;;1.48;;
29546;SDS011;40782;47.264;11.330;2022-09-09T02:19:36;3.17;;;1.80;;
29546;SDS011;40782;47.264;11.330;2022-09-09T02:22:07;1.40;;;1.33;;
29546;SDS011;40782;47.264;11.330;2022-09-09T02:24:36;2.42;;;1.42;;
29546;SDS011;40782;47.264;11.330;2022-09-09T02:27:06;3.72;;;1.40;;
29546;SDS011;40782;47.264;11.330;2022-09-09T02:29:38;1.73;;;1.63;;
29546;SDS011;40782;47.264;11.330;2022-09-09T02:34:38;2.42;;;2.00;;
29546;SDS011;40782;47.264;11.330;2022-09-09T02:37:09;1.80;;;1.33;;
29546;SDS011;40782;47.264;11.330;2022-09-09T02:39:37;3.60;;;1.80;;
29546;SDS011;40782;47.264;11.330;2022-09-09T02:42:05;2.80;;;1.70;;
29546;SDS011;40782;47.264;11.330;2022-09-09T02:44:33;3.13;;;1.75;;
29546;SDS011;40782;47.264;11.330;2022-09-09T02:47:13;5.32;;;1.40;;
29546;SDS011;40782;47.264;11.330;2022-09-09T02:49:55;4.32;;;1.60;;
29546;SDS011;40782;47.264;11.330;2022-09-09T02:52:30;2.45;;;1.58;;
29546;SDS011;40782;47.264;11.330;2022-09-09T02:55:04;1.75;;;1.33;;
29546;SDS011;40782;47.264;11.330;2022-09-09T02:57:38;1.80;;;1.65;;
29546;SDS011;40782;47.264;11.330;2022-09-09T03:00:06;1.50;;;1.40;;
29546;SDS011;40782;47.264;11.330;2022-09-09T03:02:36;4.10;;;1.83;;
29546;SDS011;40782;47.264;11.330;2022-09-09T03:05:04;3.85;;;1.65;;
29546;SDS011;40782;47.264;11.330;2022-09-09T03:07:32;1.50;;;1.40;;
29546;SDS011;40782;47.264;11.330;2022-09-09T03:10:00;3.75;;;1.70;;
29546;SDS011;40782;47.264;11.330;2022-09-09T03:12:27;4.43;;;1.73;;
29546;SDS011;40782;47.264;11.330;2022-09-09T03:14:54;2.65;;;1.65;;
29546;SDS011;40782;47.264;11.330;2022-09-09T03:17:21;1.90;;;1.35;;
29546;SDS011;40782;47.264;11.330;2022-09-09T03:19:51;2.63;;;1.50;;
29546;SDS011;40782;47.264;11.330;2022-09-09T03:22:20;1.70;;;1.60;;
29546;SDS011;40782;47.264;11.330;2022-09-09T03:24:47;2.00;;;1.80;;
29546;SDS011;40782;47.264;11.330;2022-09-09T03:27:14;2.03;;;1.50;;
29546;SDS011;40782;47.264;11.330;2022-09-09T03:29:41;2.38;;;1.80;;
29546;SDS011;40782;47.264;11.330;2022-09-09T03:32:08;2.30;;;1.90;;
29546;SDS011;40782;47.264;11.330;2022-09-09T03:34:36;1.90;;;1.80;;
29546;SDS011;40782;47.264;11.330;2022-09-09T03:37:05;1.83;;;1.63;;
29546;SDS011;40782;47.264;11.330;2022-09-09T03:39:32;2.20;;;1.98;;
29546;SDS011;40782;47.264;11.330;2022-09-09T03:42:00;3.78;;;1.75;;
29546;SDS011;40782;47.264;11.330;2022-09-09T03:44:29;4.15;;;1.98;;
29546;SDS011;40782;47.264;11.330;2022-09-09T03:46:56;2.20;;;1.80;;
29546;SDS011;40782;47.264;11.330;2022-09-09T03:49:26;2.22;;;2.03;;
29546;SDS011;40782;47.264;11.330;2022-09-09T03:51:54;2.45;;;2.15;;
29546;SDS011;40782;47.264;11.330;2022-09-09T03:54:23;7.35;;;2.20;;
29546;SDS011;40782;47.264;11.330;2022-09-09T03:56:50;2.45;;;2.25;;
29546;SDS011;40782;47.264;11.330;2022-09-09T03:59:17;2.45;;;2.08;;
29546;SDS011;40782;47.264;11.330;2022-09-09T04:01:45;2.50;;;2.30;;
29546;SDS011;40782;47.264;11.330;2022-09-09T04:04:12;4.53;;;2.22;;
29546;SDS011;40782;47.264;11.330;2022-09-09T04:06:40;2.15;;;2.00;;
29546;SDS011;40782;47.264;11.330;2022-09-09T04:09:07;3.72;;;2.17;;
29546;SDS011;40782;47.264;11.330;2022-09-09T04:11:35;2.65;;;2.45;;
29546;SDS011;40782;47.264;11.330;2022-09-09T04:14:03;2.45;;;2.25;;
29546;SDS011;40782;47.264;11.330;2022-09-09T04:16:31;3.97;;;2.33;;
29546;SDS011;40782;47.264;11.330;2022-09-09T04:18:58;4.05;;;2.22;;
29546;SDS011;40782;47.264;11.330;2022-09-09T04:21:26;4.13;;;2.35;;
29546;SDS011;40782;47.264;11.330;2022-09-09T04:23:53;6.07;;;2.03;;
29546;SDS011;40782;47.264;11.330;2022-09-09T04:26:21;4.05;;;2.17;;
29546;SDS011;40782;47.264;11.330;2022-09-09T04:28:50;4.28;;;2.38;;
29546;SDS011;40782;47.264;11.330;2022-09-09T04:31:17;4.82;;;2.67;;
29546;SDS011;40782;47.264;11.330;2022-09-09T04:33:48;4.72;;;2.90;;
29546;SDS011;40782;47.264;11.330;2022-09-09T04:36:15;7.25;;;3.40;;
29546;SDS011;40782;47.264;11.330;2022-09-09T04:38:45;6.40;;;3.20;;
29546;SDS011;40782;47.264;11.330;2022-09-09T04:41:13;5.50;;;3.58;;
29546;SDS011;40782;47.264;11.330;2022-09-09T04:43:41;6.85;;;3.88;;
29546;SDS011;40782;47.264;11.330;2022-09-09T04:46:10;12.80;;;4.32;;
29546;SDS011;40782;47.264;11.330;2022-09-09T04:48:37;7.05;;;4.43;;
29546;SDS011;40782;47.264;11.330;2022-09-09T04:51:05;9.93;;;4.13;;
29546;SDS011;40782;47.264;11.330;2022-09-09T04:53:34;5.68;;;4.40;;
29546;SDS011;40782;47.264;11.330;2022-09-09T04:56:02;7.35;;;4.10;;
29546;SDS011;40782;47.264;11.330;2022-09-09T04:58:30;5.78;;;3.95;;
29546;SDS011;40782;47.264;11.330;2022-09-09T05:01:02;6.95;;;4.85;;
29546;SDS011;40782;47.264;11.330;2022-09-09T05:03:35;7.05;;;4.32;;
29546;SDS011;40782;47.264;11.330;2022-09-09T05:06:03;6.80;;;4.43;;
29546;SDS011;40782;47.264;11.330;2022-09-09T05:08:33;6.05;;;4.20;;
29546;SDS011;40782;47.264;11.330;2022-09-09T05:11:00;4.00;;;3.60;;
29546;SDS011;40782;47.264;11.330;2022-09-09T05:13:28;4.45;;;3.78;;
29546;SDS011;40782;47.264;11.330;2022-09-09T05:15:56;6.03;;;3.88;;
29546;SDS011;40782;47.264;11.330;2022-09-09T05:18:23;6.30;;;4.50;;
29546;SDS011;40782;47.264;11.330;2022-09-09T05:20:52;7.30;;;4.97;;
29546;SDS011;40782;47.264;11.330;2022-09-09T05:23:24;6.13;;;4.03;;
29546;SDS011;40782;47.264;11.330;2022-09-09T05:25:56;4.20;;;3.80;;
29546;SDS011;40782;47.264;11.330;2022-09-09T05:28:24;5.30;;;3.72;;
29546;SDS011;40782;47.264;11.330;2022-09-09T05:30:55;5.45;;;4.28;;
29546;SDS011;40782;47.264;11.330;2022-09-09T05:33:23;6.95;;;4.50;;
29546;SDS011;40782;47.264;11.330;2022-09-09T05:35:56;4.20;;;3.70;;
29546;SDS011;40782;47.264;11.330;2022-09-09T05:38:24;7.45;;;4.68;;
29546;SDS011;40782;47.264;11.330;2022-09-09T05:40:51;5.25;;;4.40;;
29546;SDS011;40782;47.264;11.330;2022-09-09T05:43:19;9.73;;;4.03;;
29546;SDS011;40782;47.264;11.330;2022-09-09T05:45:46;4.65;;;4.25;;
29546;SDS011;40782;47.264;11.330;2022-09-09T05:48:13;5.15;;;4.53;;
29546;SDS011;40782;47.264;11.330;2022-09-09T05:50:41;6.32;;;4.13;;
29546;SDS011;40782;47.264;11.330;2022-09-09T05:53:11;4.32;;;3.92;;
29546;SDS011;40782;47.264;11.330;2022-09-09T05:55:38;5.35;;;4.03;;
29546;SDS011;40782;47.264;11.330;2022-09-09T05:58:05;4.78;;;4.38;;
29546;SDS011;40782;47.264;11.330;2022-09-09T06:00:32;5.88;;;5.22;;
29546;SDS011;40782;47.264;11.330;2022-09-09T06:02:59;6.18;;;4.55;;
29546;SDS011;40782;47.264;11.330;2022-09-09T06:05:27;7.40;;;5.63;;
29546;SDS011;40782;47.264;11.330;2022-09-09T06:07:55;6.03;;;4.70;;
29546;SDS011;40782;47.264;11.330;2022-09-09T06:10:24;5.60;;;4.70;;
29546;SDS011;40782;47.264;11.330;2022-09-09T06:12:52;5.90;;;4.90;;
29546;SDS011;40782;47.264;11.330;2022-09-09T06:15:19;6.20;;;4.90;;
29546;SDS011;40782;47.264;11.330;2022-09-09T06:17:46;9.00;;;5.75;;
29546;SDS011;40782;47.264;11.330;2022-09-09T06:20:20;10.65;;;6.28;;
29546;SDS011;40782;47.264;11.330;2022-09-09T06:22:47;8.18;;;5.82;;
29546;SDS011;40782;47.264;11.330;2022-09-09T06:25:14;7.22;;;6.53;;
29546;SDS011;40782;47.264;11.330;2022-09-09T06:27:49;6.90;;;6.13;;
29546;SDS011;40782;47.264;11.330;2022-09-09T06:30:16;6.18;;;5.57;;
29546;SDS011;40782;47.264;11.330;2022-09-09T06:32:43;6.82;;;6.15;;
29546;SDS011;40782;47.264;11.330;2022-09-09T06:35:10;6.50;;;5.90;;
29546;SDS011;40782;47.264;11.330;2022-09-09T06:37:38;9.32;;;5.93;;
29546;SDS011;40782;47.264;11.330;2022-09-09T06:40:06;6.85;;;5.70;;
29546;SDS011;40782;47.264;11.330;2022-09-09T06:42:34;6.60;;;6.00;;
29546;SDS011;40782;47.264;11.330;2022-09-09T06:45:03;6.70;;;6.05;;
29546;SDS011;40782;47.264;11.330;2022-09-09T06:47:32;7.35;;;6.60;;
29546;SDS011;40782;47.264;11.330;2022-09-09T06:49:59;9.43;;;6.47;;
29546;SDS011;40782;47.264;11.330;2022-09-09T06:52:26;12.55;;;10.98;;
29546;SDS011;40782;47.264;11.330;2022-09-09T06:54:54;11.25;;;9.27;;
29546;SDS011;40782;47.264;11.330;2022-09-09T06:57:23;11.15;;;7.97;;
29546;SDS011;40782;47.264;11.330;2022-09-09T06:59:50;7.72;;;6.68;;
29546;SDS011;40782;47.264;11.330;2022-09-09T07:02:19;10.20;;;8.15;;
29546;SDS011;40782;47.264;11.330;2022-09-09T07:04:46;9.02;;;7.38;;
29546;SDS011;40782;47.264;11.330;2022-09-09T07:07:16;10.27;;;8.68;;
29546;SDS011;40782;47.264;11.330;2022-09-09T07:09:44;6.80;;;6.10;;
29546;SDS011;40782;47.264;11.330;2022-09-09T07:12:11;9.60;;;8.60;;
29546;SDS011;40782;47.264;11.330;2022-09-09T07:14:38;8.55;;;6.68;;
29546;SDS011;40782;47.264;11.330;2022-09-09T07:17:06;13.90;;;7.95;;
29546;SDS011;40782;47.264;11.330;2022-09-09T07:19:35;9.75;;;7.15;;
29546;SDS011;40782;47.264;11.330;2022-09-09T07:22:02;7.05;;;6.35;;
29546;SDS011;40782;47.264;11.330;2022-09-09T07:24:31;6.45;;;5.38;;
29546;SDS011;40782;47.264;11.330;2022-09-09T07:26:58;8.77;;;5.28;;
29546;SDS011;40782;47.264;11.330;2022-09-09T07:29:25;5.70;;;4.50;;
29546;SDS011;40782;47.264;11.330;2022-09-09T07:31:52;5.15;;;4.50;;
29546;SDS011;40782;47.264;11.330;2022-09-09T07:34:19;4.22;;;3.83;;
29546;SDS011;40782;47.264;11.330;2022-09-09T07:36:48;4.90;;;4.45;;
29546;SDS011;40782;47.264;11.330;2022-09-09T07:39:16;6.13;;;4.97;;
29546;SDS011;40782;47.264;11.330;2022-09-09T07:41:43;5.10;;;4.60;;
29546;SDS011;40782;47.264;11.330;2022-09-09T07:44:12;5.10;;;4.10;;
29546;SDS011;40782;47.264;11.330;2022-09-09T07:46:41;4.53;;;3.88;;
29546;SDS011;40782;47.264;11.330;2022-09-09T07:49:10;5.28;;;3.47;;
29546;SDS011;40782;47.264;11.330;2022-09-09T07:51:38;4.30;;;4.00;;
29546;SDS011;40782;47.264;11.330;2022-09-09T07:54:09;4.40;;;4.03;;
29546;SDS011;40782;47.264;11.330;2022-09-09T07:56:38;9.43;;;4.25;;
29546;SDS011;40782;47.264;11.330;2022-09-09T07:59:05;5.50;;;3.97;;
29546;SDS011;40782;47.264;11.330;2022-09-09T08:01:34;4.30;;;3.67;;
29546;SDS011;40782;47.264;11.330;2022-09-09T08:04:05;3.50;;;3.25;;
29546;SDS011;40782;47.264;11.330;2022-09-09T08:06:34;3.92;;;3.63;;
29546;SDS011;40782;47.264;11.330;2022-09-09T08:09:03;3.80;;;3.50;;
29546;SDS011;40782;47.264;11.330;2022-09-09T08:11:33;4.30;;;3.38;;
29546;SDS011;40782;47.264;11.330;2022-09-09T08:14:01;4.22;;;3.83;;
29546;SDS011;40782;47.264;11.330;2022-09-09T08:16:30;4.05;;;3.60;;
29546;SDS011;40782;47.264;11.330;2022-09-09T08:19:02;2.95;;;2.75;;
29546;SDS011;40782;47.264;11.330;2022-09-09T08:21:31;3.78;;;3.40;;
29546;SDS011;40782;47.264;11.330;2022-09-09T08:23:59;5.88;;;4.07;;
29546;SDS011;40782;47.264;11.330;2022-09-09T08:26:28;4.22;;;3.83;;
29546;SDS011;40782;47.264;11.330;2022-09-09T08:29:01;3.63;;;3.28;;
29546;SDS011;40782;47.264;11.330;2022-09-09T08:31:31;4.60;;;3.47;;
29546;SDS011;40782;47.264;11.330;2022-09-09T08:34:02;4.93;;;3.15;;
29546;SDS011;40782;47.264;11.330;2022-09-09T08:36:32;4.38;;;3.92;;
29546;SDS011;40782;47.264;11.330;2022-09-09T08:39:04;5.90;;;3.95;;
29546;SDS011;40782;47.264;11.330;2022-09-09T08:41:38;3.60;;;3.30;;
29546;SDS011;40782;47.264;11.330;2022-09-09T08:44:22;3.60;;;3.28;;
29546;SDS011;40782;47.264;11.330;2022-09-09T08:47:10;6.40;;;3.70;;
29546;SDS011;40782;47.264;11.330;2022-09-09T08:49:48;4.13;;;3.60;;
29546;SDS011;40782;47.264;11.330;2022-09-09T08:52:29;6.50;;;4.03;;
29546;SDS011;40782;47.264;11.330;2022-09-09T08:54:58;6.32;;;4.20;;
29546;SDS011;40782;47.264;11.330;2022-09-09T08:57:31;8.40;;;4.40;;
29546;SDS011;40782;47.264;11.330;2022-09-09T09:00:02;4.60;;;3.65;;
29546;SDS011;40782;47.264;11.330;2022-09-09T09:02:31;3.55;;;3.20;;
29546;SDS011;40782;47.264;11.330;2022-09-09T09:05:12;4.03;;;3.40;;
29546;SDS011;40782;47.264;11.330;2022-09-09T09:07:51;4.70;;;3.90;;
29546;SDS011;40782;47.264;11.330;2022-09-09T09:10:30;7.00;;;4.32;;
29546;SDS011;40782;47.264;11.330;2022-09-09T09:13:11;5.15;;;4.63;;
29546;SDS011;40782;47.264;11.330;2022-09-09T09:15:43;4.70;;;4.03;;
29546;SDS011;40782;47.264;11.330;2022-09-09T09:18:13;3.58;;;3.28;;
29546;SDS011;40782;47.264;11.330;2022-09-09T09:20:42;4.03;;;3.60;;
29546;SDS011;40782;47.264;11.330;2022-09-09T09:23:19;4.13;;;3.83;;
29546;SDS011;40782;47.264;11.330;2022-09-09T09:25:49;3.20;;;2.90;;
29546;SDS011;40782;47.264;11.330;2022-09-09T09:28:20;4.32;;;2.63;;
29546;SDS011;40782;47.264;11.330;2022-09-09T09:30:54;2.60;;;2.40;;
29546;SDS011;40782;47.264;11.330;2022-09-09T09:33:25;2.08;;;1.98;;
29546;SDS011;40782;47.264;11.330;2022-09-09T09:35:56;2.42;;;2.20;;
29546;SDS011;40782;47.264;11.330;2022-09-09T09:38:25;5.40;;;2.90;;
29546;SDS011;40782;47.264;11.330;2022-09-09T09:40:54;2.83;;;2.53;;
29546;SDS011;40782;47.264;11.330;2022-09-09T09:43:24;2.03;;;1.92;;
29546;SDS011;40782;47.264;11.330;2022-09-09T09:45:55;1.75;;;1.65;;
29546;SDS011;40782;47.264;11.330;2022-09-09T09:48:23;2.60;;;2.40;;
29546;SDS011;40782;47.264;11.330;2022-09-09T09:50:52;2.50;;;2.30;;
29546;SDS011;40782;47.264;11.330;2022-09-09T09:53:23;2.78;;;2.58;;
29546;SDS011;40782;47.264;11.330;2022-09-09T09:55:56;2.40;;;2.05;;
29546;SDS011;40782;47.264;11.330;2022-09-09T09:58:25;2.78;;;2.10;;
29546;SDS011;40782;47.264;11.330;2022-09-09T10:01:00;2.30;;;1.90;;
29546;SDS011;40782;47.264;11.330;2022-09-09T10:03:37;3.45;;;2.45;;
29546;SDS011;40782;47.264;11.330;2022-09-09T10:06:06;2.42;;;2.20;;
29546;SDS011;40782;47.264;11.330;2022-09-09T10:08:43;2.70;;;2.17;;
29546;SDS011;40782;47.264;11.330;2022-09-09T10:11:18;10.10;;;5.68;;
29546;SDS011;40782;47.264;11.330;2022-09-09T10:13:59;6.10;;;5.20;;
29546;SDS011;40782;47.264;11.330;2022-09-09T10:16:37;3.53;;;3.05;;
29546;SDS011;40782;47.264;11.330;2022-09-09T10:19:15;4.05;;;3.20;;
29546;SDS011;40782;47.264;11.330;2022-09-09T10:24:49;3.35;;;3.05;;
29546;SDS011;40782;47.264;11.330;2022-09-09T10:27:42;3.03;;;2.72;;
29546;SDS011;40782;47.264;11.330;2022-09-09T10:30:19;3.10;;;2.80;;
29546;SDS011;40782;47.264;11.330;2022-09-09T10:32:52;3.13;;;2.17;;
29546;SDS011;40782;47.264;11.330;2022-09-09T10:35:28;3.30;;;2.22;;
29546;SDS011;40782;47.264;11.330;2022-09-09T10:38:03;7.80;;;5.30;;
29546;SDS011;40782;47.264;11.330;2022-09-09T10:40:41;13.35;;;12.02;;
29546;SDS011;40782;47.264;11.330;2022-09-09T10:43:13;6.68;;;6.03;;
29546;SDS011;40782;47.264;11.330;2022-09-09T10:45:54;3.67;;;3.38;;
29546;SDS011;40782;47.264;11.330;2022-09-09T10:48:33;3.85;;;2.10;;
29546;SDS011;40782;47.264;11.330;2022-09-09T10:51:18;2.15;;;2.00;;
29546;SDS011;40782;47.264;11.330;2022-09-09T10:53:53;2.03;;;1.92;;
29546;SDS011;40782;47.264;11.330;2022-09-09T10:56:36;2.38;;;1.90;;
29546;SDS011;40782;47.264;11.330;2022-09-09T10:59:06;1.60;;;1.50;;
29546;SDS011;40782;47.264;11.330;2022-09-09T11:01:40;3.28;;;1.92;;
29546;SDS011;40782;47.264;11.330;2022-09-09T11:04:13;2.00;;;1.67;;
29546;SDS011;40782;47.264;11.330;2022-09-09T11:06:47;1.95;;;1.77;;
29546;SDS011;40782;47.264;11.330;2022-09-09T11:09:19;1.92;;;1.75;;
29546;SDS011;40782;47.264;11.330;2022-09-09T11:11:50;1.67;;;1.58;;
29546;SDS011;40782;47.264;11.330;2022-09-09T11:14:21;2.17;;;1.63;;
29546;SDS011;40782;47.264;11.330;2022-09-09T11:16:56;1.70;;;1.60;;
29546;SDS011;40782;47.264;11.330;2022-09-09T11:21:59;2.65;;;1.10;;
29546;SDS011;40782;47.264;11.330;2022-09-09T11:24:31;2.28;;;1.85;;
29546;SDS011;40782;47.264;11.330;2022-09-09T11:27:06;5.57;;;5.07;;
29546;SDS011;40782;47.264;11.330;2022-09-09T11:32:56;3.08;;;2.88;;
29546;SDS011;40782;47.264;11.330;2022-09-09T11:35:51;2.80;;;2.60;;
29546;SDS011;40782;47.264;11.330;2022-09-09T11:38:38;2.30;;;2.10;;
29546;SDS011;40782;47.264;11.330;2022-09-09T11:41:11;3.03;;;1.80;;
29546;SDS011;40782;47.264;11.330;2022-09-09T11:43:40;2.45;;;1.83;;
29546;SDS011;40782;47.264;11.330;2022-09-09T11:46:09;2.30;;;1.80;;
29546;SDS011;40782;47.264;11.330;2022-09-09T11:48:39;1.63;;;1.30;;
29546;SDS011;40782;47.264;11.330;2022-09-09T11:51:12;3.25;;;1.33;;
29546;SDS011;40782;47.264;11.330;2022-09-09T11:53:53;3.20;;;1.97;;
29546;SDS011;40782;47.264;11.330;2022-09-09T11:56:25;3.90;;;2.08;;
29546;SDS011;40782;47.264;11.330;2022-09-09T11:58:57;3.45;;;1.83;;
29546;SDS011;40782;47.264;11.330;2022-09-09T12:01:38;2.70;;;1.95;;
29546;SDS011;40782;47.264;11.330;2022-09-09T12:04:25;1.95;;;1.70;;
29546;SDS011;40782;47.264;11.330;2022-09-09T12:07:04;11.00;;;4.20;;
29546;SDS011;40782;47.264;11.330;2022-09-09T12:09:57;5.70;;;2.35;;
29546;SDS011;40782;47.264;11.330;2022-09-09T12:12:28;2.97;;;1.90;;
29546;SDS011;40782;47.264;11.330;2022-09-09T12:15:17;2.42;;;1.60;;
29546;SDS011;40782;47.264;11.330;2022-09-09T12:17:51;1.98;;;1.33;;
29546;SDS011;40782;47.264;11.330;2022-09-09T12:20:20;2.60;;;1.10;;
29546;SDS011;40782;47.264;11.330;2022-09-09T12:22:57;2.15;;;1.25;;
29546;SDS011;40782;47.264;11.330;2022-09-09T12:25:58;4.10;;;1.25;;
29546;SDS011;40782;47.264;11.330;2022-09-09T12:28:46;2.97;;;1.00;;
29546;SDS011;40782;47.264;11.330;2022-09-09T12:31:22;2.03;;;1.50;;
29546;SDS011;40782;47.264;11.330;2022-09-09T12:33:53;2.40;;;1.27;;
29546;SDS011;40782;47.264;11.330;2022-09-09T12:36:23;1.15;;;0.93;;
29546;SDS011;40782;47.264;11.330;2022-09-09T12:38:56;2.35;;;1.42;;
29546;SDS011;40782;47.264;11.330;2022-09-09T12:41:36;6.67;;;5.60;;
29546;SDS011;40782;47.264;11.330;2022-09-09T12:44:03;2.22;;;1.75;;
29546;SDS011;40782;47.264;11.330;2022-09-09T12:46:34;1.65;;;0.90;;
29546;SDS011;40782;47.264;11.330;2022-09-09T12:49:18;1.35;;;1.10;;
29546;SDS011;40782;47.264;11.330;2022-09-09T12:51:52;0.90;;;0.82;;
29546;SDS011;40782;47.264;11.330;2022-09-09T12:54:23;3.53;;;1.38;;
29546;SDS011;40782;47.264;11.330;2022-09-09T12:56:50;1.10;;;1.00;;
29546;SDS011;40782;47.264;11.330;2022-09-09T12:59:22;1.05;;;1.05;;
29546;SDS011;40782;47.264;11.330;2022-09-09T13:01:56;1.08;;;0.98;;
29546;SDS011;40782;47.264;11.330;2022-09-09T13:04:24;1.33;;;1.02;;
29546;SDS011;40782;47.264;11.330;2022-09-09T13:06:52;1.33;;;1.15;;
29546;SDS011;40782;47.264;11.330;2022-09-09T13:09:20;2.13;;;1.27;;
29546;SDS011;40782;47.264;11.330;2022-09-09T13:11:50;1.27;;;0.90;;
29546;SDS011;40782;47.264;11.330;2022-09-09T13:14:22;2.92;;;1.15;;
29546;SDS011;40782;47.264;11.330;2022-09-09T13:16:55;0.95;;;0.95;;
29546;SDS011;40782;47.264;11.330;2022-09-09T13:19:24;0.93;;;0.82;;
29546;SDS011;40782;47.264;11.330;2022-09-09T13:21:54;1.17;;;1.08;;
29546;SDS011;40782;47.264;11.330;2022-09-09T13:24:25;1.00;;;1.00;;
29546;SDS011;40782;47.264;11.330;2022-09-09T13:26:57;1.55;;;1.00;;
29546;SDS011;40782;47.264;11.330;2022-09-09T13:29:26;1.33;;;0.77;;
29546;SDS011;40782;47.264;11.330;2022-09-09T13:31:54;1.05;;;1.00;;
29546;SDS011;40782;47.264;11.330;2022-09-09T13:34:31;2.05;;;1.10;;
29546;SDS011;40782;47.264;11.330;2022-09-09T13:37:00;1.55;;;1.10;;
29546;SDS011;40782;47.264;11.330;2022-09-09T13:39:32;2.97;;;1.20;;
29546;SDS011;40782;47.264;11.330;2022-09-09T13:42:02;2.65;;;1.00;;
29546;SDS011;40782;47.264;11.330;2022-09-09T13:44:33;2.80;;;1.58;;
29546;SDS011;40782;47.264;11.330;2022-09-09T13:47:04;1.63;;;1.13;;
29546;SDS011;40782;47.264;11.330;2022-09-09T13:49:32;1.52;;;1.30;;
29546;SDS011;40782;47.264;11.330;2022-09-09T13:52:03;2.63;;;1.27;;
29546;SDS011;40782;47.264;11.330;2022-09-09T13:54:35;1.65;;;1.40;;
29546;SDS011;40782;47.264;11.330;2022-09-09T13:57:03;1.63;;;1.38;;
29546;SDS011;40782;47.264;11.330;2022-09-09T13:59:31;1.60;;;1.17;;
29546;SDS011;40782;47.264;11.330;2022-09-09T14:01:58;1.75;;;1.55;;
29546;SDS011;40782;47.264;11.330;2022-09-09T14:04:26;2.25;;;1.77;;
29546;SDS011;40782;47.264;11.330;2022-09-09T14:06:54;3.47;;;1.40;;
29546;SDS011;40782;47.264;11.330;2022-09-09T14:09:22;2.50;;;1.55;;
29546;SDS011;40782;47.264;11.330;2022-09-09T14:11:49;2.38;;;1.67;;
29546;SDS011;40782;47.264;11.330;2022-09-09T14:14:17;2.85;;;1.48;;
29546;SDS011;40782;47.264;11.330;2022-09-09T14:16:46;2.38;;;1.40;;
29546;SDS011;40782;47.264;11.330;2022-09-09T14:19:13;3.67;;;1.50;;
29546;SDS011;40782;47.264;11.330;2022-09-09T14:21:40;2.05;;;1.60;;
29546;SDS011;40782;47.264;11.330;2022-09-09T14:24:07;7.70;;;1.98;;
29546;SDS011;40782;47.264;11.330;2022-09-09T14:26:34;3.72;;;1.80;;
29546;SDS011;40782;47.264;11.330;2022-09-09T14:29:02;2.70;;;1.67;;
29546;SDS011;40782;47.264;11.330;2022-09-09T14:31:30;3.22;;;2.08;;
29546;SDS011;40782;47.264;11.330;2022-09-09T14:33:57;2.67;;;1.75;;
29546;SDS011;40782;47.264;11.330;2022-09-09T14:36:25;2.65;;;1.90;;
29546;SDS011;40782;47.264;11.330;2022-09-09T14:38:52;3.25;;;2.00;;
29546;SDS011;40782;47.264;11.330;2022-09-09T14:41:19;3.30;;;1.50;;
29546;SDS011;40782;47.264;11.330;2022-09-09T14:43:47;2.20;;;1.15;;
29546;SDS011;40782;47.264;11.330;2022-09-09T14:46:16;1.95;;;1.35;;
29546;SDS011;40782;47.264;11.330;2022-09-09T14:48:46;1.80;;;1.25;;
29546;SDS011;40782;47.264;11.330;2022-09-09T14:51:15;1.98;;;1.00;;
29546;SDS011;40782;47.264;11.330;2022-09-09T14:53:45;1.02;;;0.93;;
29546;SDS011;40782;47.264;11.330;2022-09-09T14:56:14;1.17;;;0.90;;
29546;SDS011;40782;47.264;11.330;2022-09-09T14:58:42;2.35;;;0.90;;
29546;SDS011;40782;47.264;11.330;2022-09-09T15:01:10;0.88;;;0.80;;
29546;SDS011;40782;47.264;11.330;2022-09-09T15:03:39;0.73;;;0.73;;
29546;SDS011;40782;47.264;11.330;2022-09-09T15:06:09;0.75;;;0.75;;
29546;SDS011;40782;47.264;11.330;2022-09-09T15:08:38;1.42;;;0.70;;
29546;SDS011;40782;47.264;11.330;2022-09-09T15:11:08;1.63;;;0.70;;
29546;SDS011;40782;47.264;11.330;2022-09-09T15:13:36;1.42;;;0.80;;